sensor_id;sensor_type;location;lat;lon;timestamp;P1;durP1;ratioP1;P2;durP2;ratioP2
14316;SDS011;7242;50.858;6.586;2024-02-16T00:02:49;3.43;;;2.10;;
14316;SDS011;7242;50.858;6.586;2024-02-16T00:05:50;3.43;;;2.30;;
14316;SDS011;7242;50.858;6.586;2024-02-16T00:08:51;2.80;;;2.27;;
14316;SDS011;7242;50.858;6.586;2024-02-16T00:11:52;3.63;;;1.90;;
14316;SDS011;7242;50.858;6.586;2024-02-16T00:14:53;4.27;;;2.17;;
14316;SDS011;7242;50.858;6.586;2024-02-16T00:17:55;2.97;;;1.90;;
14316;SDS011;7242;50.858;6.586;2024-02-16T00:20:56;2.97;;;1.90;;
14316;SDS011;7242;50.858;6.586;2024-02-16T00:23:57;4.37;;;1.90;;
14316;SDS011;7242;50.858;6.586;2024-02-16T00:26:59;3.13;;;1.90;;
14316;SDS011;7242;50.858;6.586;2024-02-16T00:30:00;3.13;;;2.00;;
14316;SDS011;7242;50.858;6.586;2024-02-16T00:33:02;2.73;;;2.00;;
14316;SDS011;7242;50.858;6.586;2024-02-16T00:36:03;3.10;;;2.20;;
14316;SDS011;7242;50.858;6.586;2024-02-16T00:39:04;5.50;;;2.13;;
14316;SDS011;7242;50.858;6.586;2024-02-16T00:42:05;2.50;;;2.00;;
14316;SDS011;7242;50.858;6.586;2024-02-16T00:45:06;2.50;;;1.83;;
14316;SDS011;7242;50.858;6.586;2024-02-16T00:48:08;3.30;;;2.00;;
14316;SDS011;7242;50.858;6.586;2024-02-16T00:51:09;2.90;;;1.97;;
14316;SDS011;7242;50.858;6.586;2024-02-16T00:54:10;2.03;;;1.67;;
14316;SDS011;7242;50.858;6.586;2024-02-16T00:57:12;2.70;;;2.00;;
14316;SDS011;7242;50.858;6.586;2024-02-16T01:00:14;3.57;;;1.90;;
14316;SDS011;7242;50.858;6.586;2024-02-16T01:03:15;2.13;;;1.80;;
14316;SDS011;7242;50.858;6.586;2024-02-16T01:06:17;2.60;;;2.00;;
14316;SDS011;7242;50.858;6.586;2024-02-16T01:09:18;2.60;;;2.30;;
14316;SDS011;7242;50.858;6.586;2024-02-16T01:12:19;3.60;;;2.10;;
14316;SDS011;7242;50.858;6.586;2024-02-16T01:15:20;4.87;;;2.10;;
14316;SDS011;7242;50.858;6.586;2024-02-16T01:18:21;2.97;;;2.33;;
14316;SDS011;7242;50.858;6.586;2024-02-16T01:21:22;5.60;;;2.17;;
14316;SDS011;7242;50.858;6.586;2024-02-16T01:24:24;3.23;;;2.43;;
14316;SDS011;7242;50.858;6.586;2024-02-16T01:27:24;2.23;;;1.87;;
14316;SDS011;7242;50.858;6.586;2024-02-16T01:30:27;2.63;;;2.20;;
14316;SDS011;7242;50.858;6.586;2024-02-16T01:33:28;3.77;;;2.20;;
14316;SDS011;7242;50.858;6.586;2024-02-16T01:36:29;3.40;;;2.03;;
14316;SDS011;7242;50.858;6.586;2024-02-16T01:39:30;2.27;;;1.93;;
14316;SDS011;7242;50.858;6.586;2024-02-16T01:42:31;2.93;;;1.67;;
14316;SDS011;7242;50.858;6.586;2024-02-16T01:45:32;2.70;;;1.90;;
14316;SDS011;7242;50.858;6.586;2024-02-16T01:48:33;3.67;;;2.07;;
14316;SDS011;7242;50.858;6.586;2024-02-16T01:51:35;2.97;;;2.20;;
14316;SDS011;7242;50.858;6.586;2024-02-16T01:54:36;6.73;;;2.50;;
14316;SDS011;7242;50.858;6.586;2024-02-16T01:57:44;4.13;;;2.20;;
14316;SDS011;7242;50.858;6.586;2024-02-16T02:00:46;3.03;;;2.20;;
14316;SDS011;7242;50.858;6.586;2024-02-16T02:03:47;3.00;;;2.23;;
14316;SDS011;7242;50.858;6.586;2024-02-16T02:06:48;3.17;;;2.17;;
14316;SDS011;7242;50.858;6.586;2024-02-16T02:09:49;3.77;;;2.17;;
14316;SDS011;7242;50.858;6.586;2024-02-16T02:12:50;2.83;;;2.10;;
14316;SDS011;7242;50.858;6.586;2024-02-16T02:15:52;2.73;;;2.03;;
14316;SDS011;7242;50.858;6.586;2024-02-16T02:18:54;4.07;;;2.13;;
14316;SDS011;7242;50.858;6.586;2024-02-16T02:21:55;2.60;;;2.10;;
14316;SDS011;7242;50.858;6.586;2024-02-16T02:24:57;4.53;;;2.30;;
14316;SDS011;7242;50.858;6.586;2024-02-16T02:27:58;2.93;;;2.30;;
14316;SDS011;7242;50.858;6.586;2024-02-16T02:30:59;3.90;;;2.00;;
14316;SDS011;7242;50.858;6.586;2024-02-16T02:34:00;3.40;;;2.00;;
14316;SDS011;7242;50.858;6.586;2024-02-16T02:37:02;2.37;;;2.10;;
14316;SDS011;7242;50.858;6.586;2024-02-16T02:40:04;5.17;;;2.27;;
14316;SDS011;7242;50.858;6.586;2024-02-16T02:43:08;3.20;;;2.30;;
14316;SDS011;7242;50.858;6.586;2024-02-16T02:46:09;5.97;;;2.60;;
14316;SDS011;7242;50.858;6.586;2024-02-16T02:49:14;5.77;;;2.23;;
14316;SDS011;7242;50.858;6.586;2024-02-16T02:52:15;3.07;;;2.23;;
14316;SDS011;7242;50.858;6.586;2024-02-16T02:55:16;3.97;;;2.40;;
14316;SDS011;7242;50.858;6.586;2024-02-16T02:58:17;3.57;;;2.33;;
14316;SDS011;7242;50.858;6.586;2024-02-16T03:01:18;8.93;;;2.43;;
14316;SDS011;7242;50.858;6.586;2024-02-16T03:04:20;3.73;;;2.13;;
14316;SDS011;7242;50.858;6.586;2024-02-16T03:07:21;2.97;;;2.10;;
14316;SDS011;7242;50.858;6.586;2024-02-16T03:10:22;3.70;;;2.20;;
14316;SDS011;7242;50.858;6.586;2024-02-16T03:13:24;2.40;;;1.97;;
14316;SDS011;7242;50.858;6.586;2024-02-16T03:16:24;4.33;;;2.00;;
14316;SDS011;7242;50.858;6.586;2024-02-16T03:19:25;3.57;;;2.30;;
14316;SDS011;7242;50.858;6.586;2024-02-16T03:22:26;4.40;;;2.10;;
14316;SDS011;7242;50.858;6.586;2024-02-16T03:25:28;2.80;;;2.10;;
14316;SDS011;7242;50.858;6.586;2024-02-16T03:28:29;5.80;;;2.30;;
14316;SDS011;7242;50.858;6.586;2024-02-16T03:31:30;3.47;;;2.03;;
14316;SDS011;7242;50.858;6.586;2024-02-16T03:34:33;3.83;;;2.10;;
14316;SDS011;7242;50.858;6.586;2024-02-16T03:37:34;3.47;;;2.10;;
14316;SDS011;7242;50.858;6.586;2024-02-16T03:40:35;4.20;;;2.13;;
14316;SDS011;7242;50.858;6.586;2024-02-16T03:43:37;2.23;;;1.90;;
14316;SDS011;7242;50.858;6.586;2024-02-16T03:46:38;3.50;;;2.20;;
14316;SDS011;7242;50.858;6.586;2024-02-16T03:49:39;3.07;;;2.00;;
14316;SDS011;7242;50.858;6.586;2024-02-16T03:52:40;3.70;;;2.40;;
14316;SDS011;7242;50.858;6.586;2024-02-16T03:55:41;3.77;;;2.10;;
14316;SDS011;7242;50.858;6.586;2024-02-16T03:58:42;3.67;;;2.07;;
14316;SDS011;7242;50.858;6.586;2024-02-16T04:01:42;3.23;;;2.10;;
14316;SDS011;7242;50.858;6.586;2024-02-16T04:04:43;2.67;;;1.80;;
14316;SDS011;7242;50.858;6.586;2024-02-16T04:07:44;3.63;;;2.20;;
14316;SDS011;7242;50.858;6.586;2024-02-16T04:10:46;3.10;;;2.37;;
14316;SDS011;7242;50.858;6.586;2024-02-16T04:13:46;3.83;;;2.00;;
14316;SDS011;7242;50.858;6.586;2024-02-16T04:16:47;4.53;;;2.50;;
14316;SDS011;7242;50.858;6.586;2024-02-16T04:19:49;3.77;;;2.40;;
14316;SDS011;7242;50.858;6.586;2024-02-16T04:22:50;3.07;;;2.40;;
14316;SDS011;7242;50.858;6.586;2024-02-16T04:25:51;3.93;;;2.50;;
14316;SDS011;7242;50.858;6.586;2024-02-16T04:28:52;4.70;;;2.40;;
14316;SDS011;7242;50.858;6.586;2024-02-16T04:31:53;5.37;;;2.23;;
14316;SDS011;7242;50.858;6.586;2024-02-16T04:34:54;7.23;;;2.57;;
14316;SDS011;7242;50.858;6.586;2024-02-16T04:37:56;3.70;;;2.40;;
14316;SDS011;7242;50.858;6.586;2024-02-16T04:40:57;3.10;;;2.43;;
14316;SDS011;7242;50.858;6.586;2024-02-16T04:43:58;3.20;;;2.27;;
14316;SDS011;7242;50.858;6.586;2024-02-16T04:46:59;4.97;;;2.60;;
14316;SDS011;7242;50.858;6.586;2024-02-16T04:50:00;4.10;;;2.37;;
14316;SDS011;7242;50.858;6.586;2024-02-16T04:53:01;3.37;;;2.50;;
14316;SDS011;7242;50.858;6.586;2024-02-16T04:56:03;3.47;;;2.37;;
14316;SDS011;7242;50.858;6.586;2024-02-16T04:59:05;5.03;;;3.03;;
14316;SDS011;7242;50.858;6.586;2024-02-16T05:02:06;5.53;;;2.87;;
14316;SDS011;7242;50.858;6.586;2024-02-16T05:05:07;4.30;;;2.83;;
14316;SDS011;7242;50.858;6.586;2024-02-16T05:08:08;4.83;;;2.90;;
14316;SDS011;7242;50.858;6.586;2024-02-16T05:11:09;3.87;;;2.60;;
14316;SDS011;7242;50.858;6.586;2024-02-16T05:14:10;5.13;;;2.60;;
14316;SDS011;7242;50.858;6.586;2024-02-16T05:17:14;3.80;;;2.63;;
14316;SDS011;7242;50.858;6.586;2024-02-16T05:20:15;3.27;;;2.40;;
14316;SDS011;7242;50.858;6.586;2024-02-16T05:23:16;5.37;;;3.03;;
14316;SDS011;7242;50.858;6.586;2024-02-16T05:26:17;2.53;;;2.33;;
14316;SDS011;7242;50.858;6.586;2024-02-16T05:29:19;2.70;;;2.40;;
14316;SDS011;7242;50.858;6.586;2024-02-16T05:32:19;4.93;;;2.53;;
14316;SDS011;7242;50.858;6.586;2024-02-16T05:35:21;3.77;;;2.63;;
14316;SDS011;7242;50.858;6.586;2024-02-16T05:38:23;4.20;;;3.00;;
14316;SDS011;7242;50.858;6.586;2024-02-16T05:41:35;3.50;;;2.40;;
14316;SDS011;7242;50.858;6.586;2024-02-16T05:44:38;5.00;;;3.00;;
14316;SDS011;7242;50.858;6.586;2024-02-16T05:47:39;4.67;;;2.63;;
14316;SDS011;7242;50.858;6.586;2024-02-16T05:50:41;4.93;;;2.67;;
14316;SDS011;7242;50.858;6.586;2024-02-16T05:53:43;3.87;;;2.47;;
14316;SDS011;7242;50.858;6.586;2024-02-16T05:56:45;3.37;;;2.67;;
14316;SDS011;7242;50.858;6.586;2024-02-16T05:59:48;6.80;;;2.97;;
14316;SDS011;7242;50.858;6.586;2024-02-16T06:02:49;6.97;;;3.30;;
14316;SDS011;7242;50.858;6.586;2024-02-16T06:05:50;9.30;;;3.30;;
14316;SDS011;7242;50.858;6.586;2024-02-16T06:08:51;6.73;;;3.37;;
14316;SDS011;7242;50.858;6.586;2024-02-16T06:11:52;5.53;;;2.97;;
14316;SDS011;7242;50.858;6.586;2024-02-16T06:14:53;5.83;;;2.70;;
14316;SDS011;7242;50.858;6.586;2024-02-16T06:17:56;3.73;;;2.50;;
14316;SDS011;7242;50.858;6.586;2024-02-16T06:20:57;5.40;;;2.67;;
14316;SDS011;7242;50.858;6.586;2024-02-16T06:23:58;3.90;;;2.47;;
14316;SDS011;7242;50.858;6.586;2024-02-16T06:26:59;4.13;;;2.73;;
14316;SDS011;7242;50.858;6.586;2024-02-16T06:30:00;5.30;;;2.50;;
14316;SDS011;7242;50.858;6.586;2024-02-16T06:33:04;4.73;;;2.40;;
14316;SDS011;7242;50.858;6.586;2024-02-16T06:36:05;3.17;;;2.43;;
14316;SDS011;7242;50.858;6.586;2024-02-16T06:39:09;5.50;;;2.47;;
14316;SDS011;7242;50.858;6.586;2024-02-16T06:42:11;3.67;;;2.63;;
14316;SDS011;7242;50.858;6.586;2024-02-16T06:45:12;2.93;;;2.30;;
14316;SDS011;7242;50.858;6.586;2024-02-16T06:48:13;4.63;;;2.67;;
14316;SDS011;7242;50.858;6.586;2024-02-16T06:51:16;5.97;;;2.30;;
14316;SDS011;7242;50.858;6.586;2024-02-16T06:54:16;6.40;;;2.57;;
14316;SDS011;7242;50.858;6.586;2024-02-16T06:57:17;4.17;;;2.37;;
14316;SDS011;7242;50.858;6.586;2024-02-16T07:00:20;3.83;;;2.30;;
14316;SDS011;7242;50.858;6.586;2024-02-16T07:03:22;3.60;;;2.50;;
14316;SDS011;7242;50.858;6.586;2024-02-16T07:06:24;6.23;;;2.60;;
14316;SDS011;7242;50.858;6.586;2024-02-16T07:09:24;3.83;;;2.60;;
14316;SDS011;7242;50.858;6.586;2024-02-16T07:12:25;3.47;;;2.30;;
14316;SDS011;7242;50.858;6.586;2024-02-16T07:15:26;5.60;;;2.60;;
14316;SDS011;7242;50.858;6.586;2024-02-16T07:18:27;4.43;;;2.30;;
14316;SDS011;7242;50.858;6.586;2024-02-16T07:21:28;4.20;;;2.67;;
14316;SDS011;7242;50.858;6.586;2024-02-16T07:24:29;2.87;;;2.03;;
14316;SDS011;7242;50.858;6.586;2024-02-16T07:27:30;5.67;;;2.63;;
14316;SDS011;7242;50.858;6.586;2024-02-16T07:30:31;8.33;;;2.70;;
14316;SDS011;7242;50.858;6.586;2024-02-16T07:33:33;3.73;;;2.50;;
14316;SDS011;7242;50.858;6.586;2024-02-16T07:36:34;3.03;;;2.53;;
14316;SDS011;7242;50.858;6.586;2024-02-16T07:39:36;4.77;;;2.60;;
14316;SDS011;7242;50.858;6.586;2024-02-16T07:42:40;5.03;;;2.37;;
14316;SDS011;7242;50.858;6.586;2024-02-16T07:45:42;4.97;;;2.70;;
14316;SDS011;7242;50.858;6.586;2024-02-16T07:48:43;5.27;;;2.30;;
14316;SDS011;7242;50.858;6.586;2024-02-16T07:51:44;2.53;;;2.20;;
14316;SDS011;7242;50.858;6.586;2024-02-16T07:54:45;4.10;;;2.50;;
14316;SDS011;7242;50.858;6.586;2024-02-16T07:57:46;4.97;;;2.87;;
14316;SDS011;7242;50.858;6.586;2024-02-16T08:00:47;4.83;;;2.63;;
14316;SDS011;7242;50.858;6.586;2024-02-16T08:03:49;5.07;;;2.90;;
14316;SDS011;7242;50.858;6.586;2024-02-16T08:06:51;4.27;;;2.60;;
14316;SDS011;7242;50.858;6.586;2024-02-16T08:09:52;3.67;;;2.90;;
14316;SDS011;7242;50.858;6.586;2024-02-16T08:12:53;4.43;;;2.77;;
14316;SDS011;7242;50.858;6.586;2024-02-16T08:15:54;3.17;;;2.67;;
14316;SDS011;7242;50.858;6.586;2024-02-16T08:18:56;5.17;;;2.93;;
14316;SDS011;7242;50.858;6.586;2024-02-16T08:21:57;4.90;;;2.90;;
14316;SDS011;7242;50.858;6.586;2024-02-16T08:24:58;3.97;;;2.73;;
14316;SDS011;7242;50.858;6.586;2024-02-16T08:28:00;5.80;;;2.70;;
14316;SDS011;7242;50.858;6.586;2024-02-16T08:31:01;4.77;;;2.40;;
14316;SDS011;7242;50.858;6.586;2024-02-16T08:34:01;4.70;;;2.57;;
14316;SDS011;7242;50.858;6.586;2024-02-16T08:37:07;4.07;;;2.43;;
14316;SDS011;7242;50.858;6.586;2024-02-16T08:40:08;4.50;;;2.67;;
14316;SDS011;7242;50.858;6.586;2024-02-16T08:43:14;4.93;;;2.53;;
14316;SDS011;7242;50.858;6.586;2024-02-16T08:46:15;5.63;;;2.47;;
14316;SDS011;7242;50.858;6.586;2024-02-16T08:49:16;6.63;;;2.10;;
14316;SDS011;7242;50.858;6.586;2024-02-16T08:52:17;6.87;;;2.60;;
14316;SDS011;7242;50.858;6.586;2024-02-16T08:55:18;6.03;;;2.80;;
14316;SDS011;7242;50.858;6.586;2024-02-16T08:58:19;5.70;;;2.20;;
14316;SDS011;7242;50.858;6.586;2024-02-16T09:01:33;4.77;;;2.17;;
14316;SDS011;7242;50.858;6.586;2024-02-16T09:04:34;7.97;;;2.73;;
14316;SDS011;7242;50.858;6.586;2024-02-16T09:07:35;5.73;;;2.50;;
14316;SDS011;7242;50.858;6.586;2024-02-16T09:10:36;6.30;;;2.70;;
14316;SDS011;7242;50.858;6.586;2024-02-16T09:13:39;4.17;;;2.67;;
14316;SDS011;7242;50.858;6.586;2024-02-16T09:16:40;6.00;;;2.40;;
14316;SDS011;7242;50.858;6.586;2024-02-16T09:19:41;4.90;;;2.47;;
14316;SDS011;7242;50.858;6.586;2024-02-16T09:22:41;4.90;;;2.40;;
14316;SDS011;7242;50.858;6.586;2024-02-16T09:25:42;3.30;;;2.17;;
14316;SDS011;7242;50.858;6.586;2024-02-16T09:28:46;5.87;;;2.40;;
14316;SDS011;7242;50.858;6.586;2024-02-16T09:31:48;4.60;;;2.40;;
14316;SDS011;7242;50.858;6.586;2024-02-16T09:34:51;4.60;;;2.43;;
14316;SDS011;7242;50.858;6.586;2024-02-16T09:37:52;4.17;;;2.43;;
14316;SDS011;7242;50.858;6.586;2024-02-16T09:40:53;8.10;;;2.50;;
14316;SDS011;7242;50.858;6.586;2024-02-16T09:43:54;4.17;;;2.10;;
14316;SDS011;7242;50.858;6.586;2024-02-16T09:46:55;3.97;;;2.50;;
14316;SDS011;7242;50.858;6.586;2024-02-16T09:49:57;4.50;;;2.40;;
14316;SDS011;7242;50.858;6.586;2024-02-16T09:52:58;8.77;;;2.60;;
14316;SDS011;7242;50.858;6.586;2024-02-16T09:56:00;4.30;;;2.40;;
14316;SDS011;7242;50.858;6.586;2024-02-16T09:59:01;4.70;;;2.30;;
14316;SDS011;7242;50.858;6.586;2024-02-16T10:02:03;3.80;;;2.30;;
14316;SDS011;7242;50.858;6.586;2024-02-16T10:05:09;4.37;;;2.43;;
14316;SDS011;7242;50.858;6.586;2024-02-16T10:08:17;4.93;;;2.30;;
14316;SDS011;7242;50.858;6.586;2024-02-16T10:11:18;6.07;;;2.33;;
14316;SDS011;7242;50.858;6.586;2024-02-16T10:14:20;4.67;;;2.47;;
14316;SDS011;7242;50.858;6.586;2024-02-16T10:17:22;6.10;;;2.40;;
14316;SDS011;7242;50.858;6.586;2024-02-16T10:20:23;4.93;;;2.20;;
14316;SDS011;7242;50.858;6.586;2024-02-16T10:23:24;4.97;;;2.50;;
14316;SDS011;7242;50.858;6.586;2024-02-16T10:26:25;3.90;;;2.53;;
14316;SDS011;7242;50.858;6.586;2024-02-16T10:29:26;6.07;;;2.37;;
14316;SDS011;7242;50.858;6.586;2024-02-16T10:32:28;6.23;;;2.43;;
14316;SDS011;7242;50.858;6.586;2024-02-16T10:35:29;4.20;;;2.20;;
14316;SDS011;7242;50.858;6.586;2024-02-16T10:38:31;4.77;;;2.40;;
14316;SDS011;7242;50.858;6.586;2024-02-16T10:41:33;5.47;;;3.10;;
14316;SDS011;7242;50.858;6.586;2024-02-16T10:44:35;6.40;;;2.50;;
14316;SDS011;7242;50.858;6.586;2024-02-16T10:47:37;5.10;;;2.63;;
14316;SDS011;7242;50.858;6.586;2024-02-16T10:50:38;6.50;;;2.77;;
14316;SDS011;7242;50.858;6.586;2024-02-16T10:53:39;6.07;;;2.57;;
14316;SDS011;7242;50.858;6.586;2024-02-16T10:56:41;6.93;;;2.80;;
14316;SDS011;7242;50.858;6.586;2024-02-16T10:59:43;7.17;;;2.77;;
14316;SDS011;7242;50.858;6.586;2024-02-16T11:02:54;7.13;;;2.50;;
14316;SDS011;7242;50.858;6.586;2024-02-16T11:05:56;4.97;;;2.30;;
14316;SDS011;7242;50.858;6.586;2024-02-16T11:09:02;5.77;;;2.53;;
14316;SDS011;7242;50.858;6.586;2024-02-16T11:12:11;6.73;;;2.77;;
14316;SDS011;7242;50.858;6.586;2024-02-16T11:15:13;5.17;;;2.47;;
14316;SDS011;7242;50.858;6.586;2024-02-16T11:18:14;5.57;;;2.70;;
14316;SDS011;7242;50.858;6.586;2024-02-16T11:21:15;4.77;;;2.37;;
14316;SDS011;7242;50.858;6.586;2024-02-16T11:24:16;7.20;;;2.40;;
14316;SDS011;7242;50.858;6.586;2024-02-16T11:27:19;5.70;;;2.80;;
14316;SDS011;7242;50.858;6.586;2024-02-16T11:30:21;6.23;;;2.73;;
14316;SDS011;7242;50.858;6.586;2024-02-16T11:33:22;4.27;;;2.93;;
14316;SDS011;7242;50.858;6.586;2024-02-16T11:36:23;4.47;;;2.53;;
14316;SDS011;7242;50.858;6.586;2024-02-16T11:39:25;5.87;;;2.77;;
14316;SDS011;7242;50.858;6.586;2024-02-16T11:42:27;5.83;;;2.90;;
14316;SDS011;7242;50.858;6.586;2024-02-16T11:45:28;4.13;;;2.67;;
14316;SDS011;7242;50.858;6.586;2024-02-16T11:48:29;7.67;;;3.20;;
14316;SDS011;7242;50.858;6.586;2024-02-16T11:51:32;7.03;;;2.80;;
14316;SDS011;7242;50.858;6.586;2024-02-16T11:54:33;6.13;;;3.03;;
14316;SDS011;7242;50.858;6.586;2024-02-16T11:57:34;7.37;;;2.70;;
14316;SDS011;7242;50.858;6.586;2024-02-16T12:00:36;6.30;;;2.90;;
14316;SDS011;7242;50.858;6.586;2024-02-16T12:03:37;4.57;;;2.93;;
14316;SDS011;7242;50.858;6.586;2024-02-16T12:06:41;7.00;;;3.17;;
14316;SDS011;7242;50.858;6.586;2024-02-16T12:09:54;6.63;;;3.20;;
14316;SDS011;7242;50.858;6.586;2024-02-16T12:12:58;5.63;;;3.13;;
14316;SDS011;7242;50.858;6.586;2024-02-16T12:16:01;5.73;;;2.70;;
14316;SDS011;7242;50.858;6.586;2024-02-16T12:19:05;5.93;;;2.87;;
14316;SDS011;7242;50.858;6.586;2024-02-16T12:22:06;5.90;;;3.07;;
14316;SDS011;7242;50.858;6.586;2024-02-16T12:25:08;8.87;;;3.73;;
14316;SDS011;7242;50.858;6.586;2024-02-16T12:28:09;6.43;;;3.60;;
14316;SDS011;7242;50.858;6.586;2024-02-16T12:31:10;7.23;;;3.20;;
14316;SDS011;7242;50.858;6.586;2024-02-16T12:34:11;6.03;;;3.30;;
14316;SDS011;7242;50.858;6.586;2024-02-16T12:37:12;7.70;;;3.30;;
14316;SDS011;7242;50.858;6.586;2024-02-16T12:40:13;6.00;;;3.20;;
14316;SDS011;7242;50.858;6.586;2024-02-16T12:43:15;6.40;;;3.07;;
14316;SDS011;7242;50.858;6.586;2024-02-16T12:46:16;5.10;;;2.90;;
14316;SDS011;7242;50.858;6.586;2024-02-16T12:49:17;7.63;;;3.47;;
14316;SDS011;7242;50.858;6.586;2024-02-16T12:52:21;6.40;;;2.90;;
14316;SDS011;7242;50.858;6.586;2024-02-16T12:55:23;5.77;;;3.50;;
14316;SDS011;7242;50.858;6.586;2024-02-16T12:58:24;6.40;;;3.23;;
14316;SDS011;7242;50.858;6.586;2024-02-16T13:01:27;6.20;;;3.40;;
14316;SDS011;7242;50.858;6.586;2024-02-16T13:04:28;5.30;;;2.90;;
14316;SDS011;7242;50.858;6.586;2024-02-16T13:07:32;4.93;;;3.37;;
14316;SDS011;7242;50.858;6.586;2024-02-16T13:10:33;3.50;;;3.20;;
14316;SDS011;7242;50.858;6.586;2024-02-16T13:13:34;5.17;;;3.20;;
14316;SDS011;7242;50.858;6.586;2024-02-16T13:16:35;5.40;;;3.17;;
14316;SDS011;7242;50.858;6.586;2024-02-16T13:19:36;7.17;;;3.50;;
14316;SDS011;7242;50.858;6.586;2024-02-16T13:22:38;5.53;;;3.80;;
14316;SDS011;7242;50.858;6.586;2024-02-16T13:25:39;6.70;;;3.80;;
14316;SDS011;7242;50.858;6.586;2024-02-16T13:28:40;4.77;;;3.43;;
14316;SDS011;7242;50.858;6.586;2024-02-16T13:31:41;4.27;;;3.63;;
14316;SDS011;7242;50.858;6.586;2024-02-16T13:34:42;6.97;;;3.77;;
14316;SDS011;7242;50.858;6.586;2024-02-16T13:37:44;8.30;;;3.80;;
14316;SDS011;7242;50.858;6.586;2024-02-16T13:40:44;6.77;;;4.00;;
14316;SDS011;7242;50.858;6.586;2024-02-16T13:43:46;7.10;;;4.23;;
14316;SDS011;7242;50.858;6.586;2024-02-16T13:46:47;4.87;;;4.10;;
14316;SDS011;7242;50.858;6.586;2024-02-16T13:49:48;5.40;;;4.13;;
14316;SDS011;7242;50.858;6.586;2024-02-16T13:52:49;5.80;;;4.23;;
14316;SDS011;7242;50.858;6.586;2024-02-16T13:55:50;6.03;;;4.60;;
14316;SDS011;7242;50.858;6.586;2024-02-16T13:58:52;5.50;;;4.07;;
14316;SDS011;7242;50.858;6.586;2024-02-16T14:01:53;6.50;;;4.40;;
14316;SDS011;7242;50.858;6.586;2024-02-16T14:04:54;6.73;;;4.30;;
14316;SDS011;7242;50.858;6.586;2024-02-16T14:07:56;6.80;;;4.20;;
14316;SDS011;7242;50.858;6.586;2024-02-16T14:10:57;6.67;;;4.20;;
14316;SDS011;7242;50.858;6.586;2024-02-16T14:13:58;6.83;;;4.43;;
14316;SDS011;7242;50.858;6.586;2024-02-16T14:17:00;7.73;;;4.83;;
14316;SDS011;7242;50.858;6.586;2024-02-16T14:20:01;6.93;;;4.73;;
14316;SDS011;7242;50.858;6.586;2024-02-16T14:23:03;6.00;;;4.77;;
14316;SDS011;7242;50.858;6.586;2024-02-16T14:26:04;8.70;;;4.90;;
14316;SDS011;7242;50.858;6.586;2024-02-16T14:29:05;8.17;;;4.50;;
14316;SDS011;7242;50.858;6.586;2024-02-16T14:32:06;7.73;;;5.50;;
14316;SDS011;7242;50.858;6.586;2024-02-16T14:35:08;7.43;;;5.20;;
14316;SDS011;7242;50.858;6.586;2024-02-16T14:38:10;7.80;;;5.00;;
14316;SDS011;7242;50.858;6.586;2024-02-16T14:41:13;6.50;;;5.20;;
14316;SDS011;7242;50.858;6.586;2024-02-16T14:44:16;8.00;;;5.87;;
14316;SDS011;7242;50.858;6.586;2024-02-16T14:47:17;7.43;;;5.90;;
14316;SDS011;7242;50.858;6.586;2024-02-16T14:50:18;8.13;;;6.23;;
14316;SDS011;7242;50.858;6.586;2024-02-16T14:53:20;6.83;;;5.73;;
14316;SDS011;7242;50.858;6.586;2024-02-16T14:56:21;8.57;;;6.63;;
14316;SDS011;7242;50.858;6.586;2024-02-16T14:59:23;7.77;;;6.87;;
14316;SDS011;7242;50.858;6.586;2024-02-16T15:02:24;8.63;;;7.10;;
14316;SDS011;7242;50.858;6.586;2024-02-16T15:05:26;8.47;;;7.57;;
14316;SDS011;7242;50.858;6.586;2024-02-16T15:08:27;8.63;;;7.30;;
14316;SDS011;7242;50.858;6.586;2024-02-16T15:11:28;9.63;;;8.67;;
14316;SDS011;7242;50.858;6.586;2024-02-16T15:14:29;9.83;;;8.20;;
14316;SDS011;7242;50.858;6.586;2024-02-16T15:17:30;11.70;;;8.73;;
14316;SDS011;7242;50.858;6.586;2024-02-16T15:20:31;9.63;;;8.30;;
14316;SDS011;7242;50.858;6.586;2024-02-16T15:23:32;9.27;;;8.27;;
14316;SDS011;7242;50.858;6.586;2024-02-16T15:26:33;9.53;;;7.10;;
14316;SDS011;7242;50.858;6.586;2024-02-16T15:29:34;7.70;;;6.60;;
14316;SDS011;7242;50.858;6.586;2024-02-16T15:32:36;7.77;;;7.00;;
14316;SDS011;7242;50.858;6.586;2024-02-16T15:35:37;6.80;;;4.90;;
14316;SDS011;7242;50.858;6.586;2024-02-16T15:38:38;4.30;;;3.90;;
14316;SDS011;7242;50.858;6.586;2024-02-16T15:41:40;4.57;;;3.87;;
14316;SDS011;7242;50.858;6.586;2024-02-16T15:44:41;4.10;;;3.30;;
14316;SDS011;7242;50.858;6.586;2024-02-16T15:47:42;4.13;;;3.70;;
14316;SDS011;7242;50.858;6.586;2024-02-16T15:50:43;3.30;;;2.93;;
14316;SDS011;7242;50.858;6.586;2024-02-16T15:53:44;4.07;;;2.93;;
14316;SDS011;7242;50.858;6.586;2024-02-16T15:56:46;5.60;;;4.30;;
14316;SDS011;7242;50.858;6.586;2024-02-16T15:59:47;6.83;;;4.53;;
14316;SDS011;7242;50.858;6.586;2024-02-16T16:02:51;5.63;;;5.00;;
14316;SDS011;7242;50.858;6.586;2024-02-16T16:06:13;5.43;;;4.63;;
14316;SDS011;7242;50.858;6.586;2024-02-16T16:09:14;4.20;;;3.80;;
14316;SDS011;7242;50.858;6.586;2024-02-16T16:12:15;3.27;;;3.00;;
14316;SDS011;7242;50.858;6.586;2024-02-16T16:15:16;4.13;;;3.10;;
14316;SDS011;7242;50.858;6.586;2024-02-16T16:18:17;3.07;;;2.77;;
14316;SDS011;7242;50.858;6.586;2024-02-16T16:21:18;3.30;;;2.70;;
14316;SDS011;7242;50.858;6.586;2024-02-16T16:24:20;3.03;;;2.80;;
14316;SDS011;7242;50.858;6.586;2024-02-16T16:27:21;3.10;;;2.90;;
14316;SDS011;7242;50.858;6.586;2024-02-16T16:30:22;3.40;;;3.10;;
14316;SDS011;7242;50.858;6.586;2024-02-16T16:33:24;3.80;;;3.40;;
14316;SDS011;7242;50.858;6.586;2024-02-16T16:36:25;4.27;;;3.87;;
14316;SDS011;7242;50.858;6.586;2024-02-16T16:39:27;4.47;;;3.80;;
14316;SDS011;7242;50.858;6.586;2024-02-16T16:42:28;3.90;;;3.57;;
14316;SDS011;7242;50.858;6.586;2024-02-16T16:45:29;3.77;;;2.60;;
14316;SDS011;7242;50.858;6.586;2024-02-16T16:48:32;2.47;;;2.27;;
14316;SDS011;7242;50.858;6.586;2024-02-16T16:51:32;2.30;;;2.10;;
14316;SDS011;7242;50.858;6.586;2024-02-16T16:54:34;1.93;;;1.80;;
14316;SDS011;7242;50.858;6.586;2024-02-16T16:57:38;2.23;;;2.03;;
14316;SDS011;7242;50.858;6.586;2024-02-16T17:00:39;2.47;;;2.27;;
14316;SDS011;7242;50.858;6.586;2024-02-16T17:03:40;3.17;;;2.43;;
14316;SDS011;7242;50.858;6.586;2024-02-16T17:06:41;3.23;;;2.10;;
14316;SDS011;7242;50.858;6.586;2024-02-16T17:09:42;2.23;;;2.00;;
14316;SDS011;7242;50.858;6.586;2024-02-16T17:12:46;2.53;;;2.27;;
14316;SDS011;7242;50.858;6.586;2024-02-16T17:15:47;2.87;;;2.57;;
14316;SDS011;7242;50.858;6.586;2024-02-16T17:18:50;4.03;;;3.00;;
14316;SDS011;7242;50.858;6.586;2024-02-16T17:21:51;4.20;;;2.70;;
14316;SDS011;7242;50.858;6.586;2024-02-16T17:24:52;4.23;;;3.83;;
14316;SDS011;7242;50.858;6.586;2024-02-16T17:27:53;5.47;;;4.33;;
14316;SDS011;7242;50.858;6.586;2024-02-16T17:30:54;8.27;;;4.30;;
14316;SDS011;7242;50.858;6.586;2024-02-16T17:33:55;7.00;;;5.00;;
14316;SDS011;7242;50.858;6.586;2024-02-16T17:36:56;5.20;;;4.80;;
14316;SDS011;7242;50.858;6.586;2024-02-16T17:39:57;6.47;;;5.77;;
14316;SDS011;7242;50.858;6.586;2024-02-16T17:42:58;6.37;;;5.40;;
14316;SDS011;7242;50.858;6.586;2024-02-16T17:46:00;6.83;;;6.17;;
14316;SDS011;7242;50.858;6.586;2024-02-16T17:49:02;5.90;;;5.30;;
14316;SDS011;7242;50.858;6.586;2024-02-16T17:52:04;8.13;;;5.97;;
14316;SDS011;7242;50.858;6.586;2024-02-16T17:55:06;7.30;;;6.70;;
14316;SDS011;7242;50.858;6.586;2024-02-16T17:58:08;7.37;;;6.67;;
14316;SDS011;7242;50.858;6.586;2024-02-16T18:01:10;7.70;;;7.00;;
14316;SDS011;7242;50.858;6.586;2024-02-16T18:04:11;7.10;;;6.40;;
14316;SDS011;7242;50.858;6.586;2024-02-16T18:07:13;7.40;;;6.67;;
14316;SDS011;7242;50.858;6.586;2024-02-16T18:10:14;7.60;;;6.90;;
14316;SDS011;7242;50.858;6.586;2024-02-16T18:13:16;9.07;;;7.40;;
14316;SDS011;7242;50.858;6.586;2024-02-16T18:16:21;7.93;;;7.17;;
14316;SDS011;7242;50.858;6.586;2024-02-16T18:19:27;7.70;;;7.00;;
14316;SDS011;7242;50.858;6.586;2024-02-16T18:22:28;9.40;;;8.50;;
14316;SDS011;7242;50.858;6.586;2024-02-16T18:25:29;9.20;;;8.23;;
14316;SDS011;7242;50.858;6.586;2024-02-16T18:28:30;9.40;;;8.57;;
14316;SDS011;7242;50.858;6.586;2024-02-16T18:31:31;11.20;;;9.20;;